Time;durP1;ratioP1;P1;durP2;ratioP2;P2;SDS_P1;SDS_P2;PMS_P1;PMS_P2;Temp;Humidity;BMP_temperature;BMP_pressure;BME280_temperature;BME280_humidity;BME280_pressure;Samples;Min_cycle;Max_cycle;Signal;HPM_P1;HPM_P2
2023/05/03 00:00:06;;;;;;;115.90;17.38;;;;;;;;;;5021827;28;20041;-73
2023/05/03 00:02:38;;;;;;;91.82;15.43;;;;;;;;;;5022268;28;20439;-72
2023/05/03 00:05:11;;;;;;;74.63;14.32;;;;;;;;;;5025404;28;20122;-72
2023/05/03 00:07:42;;;;;;;87.07;16.00;;;;;;;;;;5009201;28;20065;-72
2023/05/03 00:10:11;;;;;;;87.43;15.40;;;;;;;;;;5021487;28;20041;-71
2023/05/03 00:12:39;;;;;;;77.10;16.10;;;;;;;;;;5021408;28;20123;-72
2023/05/03 00:15:06;;;;;;;130.68;18.95;;;;;;;;;;5034766;28;20108;-72
2023/05/03 00:17:33;;;;;;;88.05;15.30;;;;;;;;;;5007494;28;20046;-70
2023/05/03 00:20:00;;;;;;;67.00;14.68;;;;;;;;;;5021468;28;20049;-72
2023/05/03 00:22:26;;;;;;;90.30;16.63;;;;;;;;;;5021248;28;20053;-71
2023/05/03 00:24:53;;;;;;;147.60;21.92;;;;;;;;;;5018403;28;20049;-70
2023/05/03 00:27:20;;;;;;;72.90;15.68;;;;;;;;;;5022605;28;20112;-72
2023/05/03 00:29:49;;;;;;;89.47;15.93;;;;;;;;;;5024644;28;20045;-70
2023/05/03 00:32:15;;;;;;;69.07;14.55;;;;;;;;;;5019598;28;20084;-71
2023/05/03 00:34:42;;;;;;;69.03;16.00;;;;;;;;;;5026288;28;20099;-72
2023/05/03 00:37:09;;;;;;;97.57;24.10;;;;;;;;;;5021754;28;20491;-71
2023/05/03 00:39:35;;;;;;;111.22;23.35;;;;;;;;;;5023727;28;20141;-70
2023/05/03 00:42:03;;;;;;;64.78;17.77;;;;;;;;;;5025661;28;20569;-73
2023/05/03 00:44:29;;;;;;;118.07;21.27;;;;;;;;;;5019986;28;20451;-72
2023/05/03 00:46:56;;;;;;;74.25;20.02;;;;;;;;;;5026794;28;20073;-72
2023/05/03 00:49:23;;;;;;;83.80;19.80;;;;;;;;;;5019376;28;20036;-72
2023/05/03 00:51:51;;;;;;;111.40;25.48;;;;;;;;;;5027185;28;20053;-72
2023/05/03 00:54:19;;;;;;;67.47;19.70;;;;;;;;;;5035622;28;20033;-71
2023/05/03 00:56:46;;;;;;;75.88;21.98;;;;;;;;;;5021536;28;20049;-71
2023/05/03 00:59:18;;;;;;;87.43;21.25;;;;;;;;;;5017861;28;20122;-70
2023/05/03 01:01:47;;;;;;;132.23;23.95;;;;;;;;;;5020962;28;20056;-71
2023/05/03 01:04:14;;;;;;;64.40;19.58;;;;;;;;;;5026889;28;20034;-70
2023/05/03 01:06:45;;;;;;;131.65;24.13;;;;;;;;;;5025247;28;20072;-71
2023/05/03 01:09:30;;;;;;;77.35;19.60;;;;;;;;;;5022048;28;20053;-70
2023/05/03 01:11:56;;;;;;;;;;;;;;;;;;5017046;28;20081;-72
2023/05/03 01:14:31;;;;;;;75.50;18.77;;;;;;;;;;5024210;28;19928;-73
2023/05/03 01:17:04;;;;;;;81.07;18.02;;;;;;;;;;5025268;28;20045;-71
2023/05/03 01:19:43;;;;;;;86.35;17.73;;;;;;;;;;5020060;28;20065;-71
2023/05/03 01:22:22;;;;;;;70.35;17.73;;;;;;;;;;5020269;28;20041;-72
2023/05/03 01:24:50;;;;;;;116.53;26.00;;;;;;;;;;5020180;28;20475;-72
2023/05/03 01:27:18;;;;;;;76.60;21.90;;;;;;;;;;5021903;28;20135;-70
2023/05/03 01:29:44;;;;;;;94.50;23.63;;;;;;;;;;5019101;28;20356;-70
2023/05/03 01:32:14;;;;;;;67.40;17.67;;;;;;;;;;5016772;28;20057;-71
2023/05/03 01:34:48;;;;;;;74.00;14.30;;;;;;;;;;5020957;28;20034;-71
2023/05/03 01:37:15;;;;;;;103.25;16.77;;;;;;;;;;5022242;28;20083;-71
2023/05/03 01:39:48;;;;;;;80.03;14.88;;;;;;;;;;5020954;28;20058;-73
2023/05/03 01:42:15;;;;;;;64.65;14.48;;;;;;;;;;5026169;28;20624;-72
2023/05/03 01:44:43;;;;;;;92.35;16.67;;;;;;;;;;5025548;28;20528;-73
2023/05/03 01:47:11;;;;;;;60.05;14.50;;;;;;;;;;5021486;28;20068;-72
2023/05/03 01:49:38;;;;;;;77.38;15.02;;;;;;;;;;5018351;28;20073;-72
2023/05/03 01:52:05;;;;;;;91.07;17.65;;;;;;;;;;5017984;28;20072;-71
2023/05/03 01:54:31;;;;;;;73.90;16.10;;;;;;;;;;5017556;28;20423;-70
2023/05/03 01:56:58;;;;;;;96.88;16.83;;;;;;;;;;5018876;28;20490;-73
2023/05/03 01:59:24;;;;;;;111.82;18.75;;;;;;;;;;5024563;28;20066;-70
2023/05/03 02:01:52;;;;;;;57.65;14.57;;;;;;;;;;5001446;23;20057;-70
2023/05/03 02:04:18;;;;;;;115.03;19.08;;;;;;;;;;5001500;28;20054;-70
2023/05/03 02:06:45;;;;;;;115.13;18.42;;;;;;;;;;5009043;28;20148;-68
2023/05/03 02:09:11;;;;;;;90.43;13.68;;;;;;;;;;5019523;28;20038;-70
2023/05/03 02:11:39;;;;;;;70.88;12.48;;;;;;;;;;5018035;28;20042;-70
2023/05/03 02:14:06;;;;;;;95.82;14.23;;;;;;;;;;5000537;28;20129;-69
2023/05/03 02:16:33;;;;;;;95.97;14.65;;;;;;;;;;5000768;28;20045;-69
2023/05/03 02:19:00;;;;;;;95.70;13.40;;;;;;;;;;5018530;28;20033;-69
2023/05/03 02:21:26;;;;;;;107.70;14.50;;;;;;;;;;4999973;28;20448;-70
2023/05/03 02:23:53;;;;;;;44.65;8.25;;;;;;;;;;5021529;28;20034;-70
2023/05/03 02:26:20;;;;;;;72.88;11.38;;;;;;;;;;5016539;28;20054;-71
2023/05/03 02:28:46;;;;;;;106.85;14.95;;;;;;;;;;5018709;28;20072;-70
2023/05/03 02:31:13;;;;;;;85.35;11.63;;;;;;;;;;4998948;28;20062;-70
2023/05/03 02:33:41;;;;;;;95.97;14.45;;;;;;;;;;5010303;28;20057;-71
2023/05/03 02:36:08;;;;;;;100.00;13.65;;;;;;;;;;5000290;28;20648;-69
2023/05/03 02:38:34;;;;;;;100.75;13.65;;;;;;;;;;5019424;28;20088;-69
2023/05/03 02:41:01;;;;;;;94.22;12.20;;;;;;;;;;5004063;28;20049;-70
2023/05/03 02:43:28;;;;;;;93.32;12.40;;;;;;;;;;4997895;28;20124;-68
2023/05/03 02:45:56;;;;;;;94.07;12.90;;;;;;;;;;5016520;28;20045;-69
2023/05/03 02:48:24;;;;;;;51.47;7.38;;;;;;;;;;5006029;28;20049;-69
2023/05/03 02:50:51;;;;;;;94.20;11.60;;;;;;;;;;4996645;28;20050;-71
2023/05/03 02:53:17;;;;;;;61.22;8.60;;;;;;;;;;5014835;28;20078;-69
2023/05/03 02:55:44;;;;;;;79.93;10.55;;;;;;;;;;5018471;28;20060;-68
2023/05/03 02:58:11;;;;;;;104.28;12.95;;;;;;;;;;4993966;28;20072;-70
2023/05/03 03:00:37;;;;;;;88.00;10.05;;;;;;;;;;5007933;28;20054;-70
2023/05/03 03:03:04;;;;;;;87.03;10.48;;;;;;;;;;5003175;28;20067;-70
2023/05/03 03:05:32;;;;;;;98.47;11.43;;;;;;;;;;4999596;28;20046;-70
2023/05/03 03:07:58;;;;;;;76.15;10.57;;;;;;;;;;5018452;28;20256;-70
2023/05/03 03:10:26;;;;;;;64.13;8.63;;;;;;;;;;5003004;28;20046;-69
2023/05/03 03:12:52;;;;;;;154.30;16.70;;;;;;;;;;4998584;28;20572;-70
2023/05/03 03:15:29;;;;;;;68.00;10.45;;;;;;;;;;4998532;28;20050;-69
2023/05/03 03:17:57;;;;;;;88.65;11.25;;;;;;;;;;5008176;28;20050;-69
2023/05/03 03:20:24;;;;;;;75.97;10.88;;;;;;;;;;5006357;28;20080;-69
2023/05/03 03:22:51;;;;;;;81.90;11.00;;;;;;;;;;5007833;28;20045;-70
2023/05/03 03:25:18;;;;;;;85.18;10.02;;;;;;;;;;5002847;28;20073;-69
2023/05/03 03:27:45;;;;;;;87.82;11.40;;;;;;;;;;5009363;28;20049;-68
2023/05/03 03:30:11;;;;;;;78.60;9.93;;;;;;;;;;5018083;28;20129;-70
2023/05/03 03:32:49;;;;;;;86.93;12.13;;;;;;;;;;5006376;28;20407;-69
2023/05/03 03:35:24;;;;;;;63.45;8.50;;;;;;;;;;5018459;28;20057;-69
2023/05/03 03:37:52;;;;;;;91.28;11.93;;;;;;;;;;5002162;28;20385;-70
2023/05/03 03:40:21;;;;;;;87.25;11.05;;;;;;;;;;5011971;28;20399;-69
2023/05/03 03:42:50;;;;;;;79.68;10.25;;;;;;;;;;5012655;28;20107;-71
2023/05/03 03:45:16;;;;;;;78.93;9.57;;;;;;;;;;5020964;28;20122;-70
2023/05/03 03:47:44;;;;;;;71.78;9.10;;;;;;;;;;5004712;28;20049;-69
2023/05/03 03:50:11;;;;;;;74.18;9.10;;;;;;;;;;5019378;28;20050;-70
2023/05/03 03:52:37;;;;;;;77.72;9.45;;;;;;;;;;5004962;28;20330;-70
2023/05/03 03:55:05;;;;;;;105.57;12.52;;;;;;;;;;5006264;28;20045;-70
2023/05/03 03:57:32;;;;;;;72.20;9.60;;;;;;;;;;4989014;28;20065;-69
2023/05/03 03:59:58;;;;;;;96.75;10.55;;;;;;;;;;5012467;28;20064;-70
2023/05/03 04:02:27;;;;;;;60.08;8.18;;;;;;;;;;5018383;28;20054;-71
2023/05/03 04:04:53;;;;;;;70.03;9.02;;;;;;;;;;5020178;28;20041;-68
2023/05/03 04:07:20;;;;;;;107.05;12.70;;;;;;;;;;5018367;28;20058;-70
2023/05/03 04:09:48;;;;;;;110.53;11.90;;;;;;;;;;5018024;28;20049;-70
2023/05/03 04:12:15;;;;;;;81.90;9.02;;;;;;;;;;5001921;28;20132;-69
2023/05/03 04:14:43;;;;;;;79.78;9.40;;;;;;;;;;5000738;28;20459;-69
2023/05/03 04:17:10;;;;;;;83.60;8.90;;;;;;;;;;5015002;28;20458;-69
2023/05/03 04:19:37;;;;;;;76.60;7.88;;;;;;;;;;5003235;28;20083;-69
2023/05/03 04:22:05;;;;;;;92.32;10.77;;;;;;;;;;5021532;28;20041;-70
2023/05/03 04:24:31;;;;;;;124.88;13.35;;;;;;;;;;5010264;28;20129;-70
2023/05/03 04:27:00;;;;;;;88.50;12.23;;;;;;;;;;5021325;28;20049;-70
2023/05/03 04:29:28;;;;;;;109.40;11.82;;;;;;;;;;4993837;28;20176;-69
2023/05/03 04:31:55;;;;;;;92.60;11.30;;;;;;;;;;5009872;28;20124;-70
2023/05/03 04:34:22;;;;;;;76.82;9.00;;;;;;;;;;5011147;28;20095;-70
2023/05/03 04:36:51;;;;;;;196.88;18.60;;;;;;;;;;5003930;28;20050;-69
2023/05/03 04:39:18;;;;;;;63.83;8.18;;;;;;;;;;5024716;28;20521;-70
2023/05/03 04:41:46;;;;;;;65.03;9.13;;;;;;;;;;4991817;28;20109;-70
2023/05/03 04:44:13;;;;;;;68.80;8.02;;;;;;;;;;4998687;28;20050;-70
2023/05/03 04:46:42;;;;;;;91.70;10.40;;;;;;;;;;5015736;28;20111;-68
2023/05/03 04:49:08;;;;;;;69.68;8.45;;;;;;;;;;5006235;28;20045;-67
2023/05/03 04:51:35;;;;;;;117.13;12.13;;;;;;;;;;5012261;28;20053;-70
2023/05/03 04:54:02;;;;;;;83.95;9.93;;;;;;;;;;5005484;28;20050;-70
2023/05/03 04:56:28;;;;;;;92.03;10.50;;;;;;;;;;4991639;28;20412;-70
2023/05/03 04:59:06;;;;;;;119.13;11.90;;;;;;;;;;5002581;28;20045;-71
2023/05/03 05:01:32;;;;;;;135.13;12.95;;;;;;;;;;5004776;28;20057;-70
2023/05/03 05:04:03;;;;;;;84.90;8.60;;;;;;;;;;5003553;28;20049;-70
2023/05/03 05:06:40;;;;;;;84.63;8.90;;;;;;;;;;5007109;28;20053;-69
2023/05/03 05:09:19;;;;;;;136.70;12.20;;;;;;;;;;5013045;28;20130;-68
2023/05/03 05:11:47;;;;;;;94.18;9.13;;;;;;;;;;5014223;28;20046;-69
2023/05/03 05:14:13;;;;;;;69.22;6.93;;;;;;;;;;5004098;28;20056;-69
2023/05/03 05:16:40;;;;;;;107.20;9.60;;;;;;;;;;5001800;28;20057;-68
2023/05/03 05:19:07;;;;;;;104.75;11.07;;;;;;;;;;4999359;28;21350;-70
2023/05/03 05:21:34;;;;;;;77.47;8.52;;;;;;;;;;5005750;28;20052;-68
2023/05/03 05:24:01;;;;;;;78.88;7.25;;;;;;;;;;5003557;28;20050;-68
2023/05/03 05:26:28;;;;;;;111.25;10.23;;;;;;;;;;4999586;28;20041;-68
2023/05/03 05:28:54;;;;;;;68.55;6.90;;;;;;;;;;5008857;28;20042;-69
2023/05/03 05:31:21;;;;;;;82.60;8.07;;;;;;;;;;5019102;28;20045;-70
2023/05/03 05:33:49;;;;;;;133.40;11.07;;;;;;;;;;5004830;28;20041;-68
2023/05/03 05:36:16;;;;;;;63.17;6.05;;;;;;;;;;5002766;28;20045;-68
2023/05/03 05:38:43;;;;;;;62.03;5.90;;;;;;;;;;5001784;28;20049;-68
2023/05/03 05:41:10;;;;;;;81.55;7.72;;;;;;;;;;5000996;28;20053;-68
2023/05/03 05:43:39;;;;;;;77.80;7.28;;;;;;;;;;5007946;28;20060;-68
2023/05/03 05:46:05;;;;;;;86.60;7.53;;;;;;;;;;5019628;28;20054;-69
2023/05/03 05:48:32;;;;;;;106.38;8.77;;;;;;;;;;5010503;28;20141;-68
2023/05/03 05:50:59;;;;;;;74.60;6.70;;;;;;;;;;5010095;28;20057;-67
2023/05/03 05:53:27;;;;;;;65.63;6.25;;;;;;;;;;4998248;28;20121;-68
2023/05/03 05:55:58;;;;;;;108.00;8.98;;;;;;;;;;5004855;28;20495;-68
2023/05/03 05:58:26;;;;;;;88.20;7.78;;;;;;;;;;4998900;28;20030;-69
2023/05/03 06:01:00;;;;;;;104.55;8.82;;;;;;;;;;5017138;28;20395;-69
2023/05/03 06:03:28;;;;;;;90.38;8.30;;;;;;;;;;4997842;28;20093;-68
2023/05/03 06:05:55;;;;;;;44.85;4.68;;;;;;;;;;4999131;28;20046;-68
2023/05/03 06:08:22;;;;;;;99.18;8.02;;;;;;;;;;5008089;28;20605;-69
2023/05/03 06:10:48;;;;;;;80.95;7.22;;;;;;;;;;5008820;28;20689;-69
2023/05/03 06:13:15;;;;;;;60.47;5.63;;;;;;;;;;4997981;28;20046;-69
2023/05/03 06:15:43;;;;;;;75.72;6.57;;;;;;;;;;5000601;28;20511;-69
2023/05/03 06:18:10;;;;;;;78.70;6.80;;;;;;;;;;5017444;28;20564;-68
2023/05/03 06:20:37;;;;;;;83.50;7.25;;;;;;;;;;5008986;28;20431;-69
2023/05/03 06:23:03;;;;;;;92.65;7.32;;;;;;;;;;4998115;28;20055;-69
2023/05/03 06:25:30;;;;;;;79.25;6.93;;;;;;;;;;5001969;28;20041;-68
2023/05/03 06:27:57;;;;;;;86.78;7.30;;;;;;;;;;5016968;28;20053;-68
2023/05/03 06:30:28;;;;;;;75.10;6.47;;;;;;;;;;5007395;28;20129;-68
2023/05/03 06:33:00;;;;;;;136.53;10.67;;;;;;;;;;5001762;28;20119;-69
2023/05/03 06:35:27;;;;;;;54.53;4.88;;;;;;;;;;4998288;28;20057;-70
2023/05/03 06:37:53;;;;;;;95.47;7.65;;;;;;;;;;5000391;28;20042;-69
2023/05/03 06:40:23;;;;;;;57.30;5.53;;;;;;;;;;5019148;28;20116;-70
2023/05/03 06:42:50;;;;;;;104.32;8.63;;;;;;;;;;4999089;28;20048;-70
2023/05/03 06:45:30;;;;;;;68.05;5.70;;;;;;;;;;4996320;28;20478;-68
2023/05/03 06:47:57;;;;;;;61.13;5.13;;;;;;;;;;5019295;28;20050;-67
2023/05/03 06:50:24;;;;;;;77.55;6.32;;;;;;;;;;4983634;28;20399;-67
2023/05/03 06:52:52;;;;;;;99.47;8.32;;;;;;;;;;5004893;28;20188;-68
2023/05/03 06:55:19;;;;;;;81.00;7.07;;;;;;;;;;5017620;28;20038;-68
2023/05/03 06:57:48;;;;;;;85.28;7.22;;;;;;;;;;5017294;28;20064;-70
2023/05/03 07:00:15;;;;;;;72.90;6.40;;;;;;;;;;5017172;28;20486;-68
2023/05/03 07:02:42;;;;;;;59.50;5.22;;;;;;;;;;5008589;28;20474;-66
2023/05/03 07:05:08;;;;;;;87.90;7.25;;;;;;;;;;5022416;28;20069;-70
2023/05/03 07:07:35;;;;;;;70.85;6.35;;;;;;;;;;5018641;28;20383;-70
2023/05/03 07:10:02;;;;;;;85.45;7.22;;;;;;;;;;5000625;28;20054;-69
2023/05/03 07:12:29;;;;;;;71.35;6.10;;;;;;;;;;4997311;28;20046;-71
2023/05/03 07:14:56;;;;;;;69.30;6.60;;;;;;;;;;5020691;28;20553;-70
2023/05/03 07:17:22;;;;;;;67.40;6.30;;;;;;;;;;5019864;28;20046;-69
2023/05/03 07:19:49;;;;;;;62.53;5.82;;;;;;;;;;5004838;28;20387;-70
2023/05/03 07:22:16;;;;;;;75.88;7.15;;;;;;;;;;5012778;28;20072;-69
2023/05/03 07:24:43;;;;;;;54.13;5.28;;;;;;;;;;5010513;28;20135;-70
2023/05/03 07:27:09;;;;;;;77.93;7.00;;;;;;;;;;5025488;28;20037;-69
2023/05/03 07:29:36;;;;;;;88.32;7.60;;;;;;;;;;5020636;28;20038;-70
2023/05/03 07:32:02;;;;;;;66.65;5.97;;;;;;;;;;5022164;28;20046;-70
2023/05/03 07:34:29;;;;;;;73.18;6.43;;;;;;;;;;5012285;28;20037;-68
2023/05/03 07:36:56;;;;;;;158.15;12.07;;;;;;;;;;5006713;28;20129;-70
2023/05/03 07:39:22;;;;;;;62.80;5.63;;;;;;;;;;5021017;28;20053;-70
2023/05/03 07:41:49;;;;;;;70.70;6.13;;;;;;;;;;5020751;28;20510;-70
2023/05/03 07:44:15;;;;;;;93.88;7.78;;;;;;;;;;5008843;28;20069;-69
2023/05/03 07:46:45;;;;;;;90.70;7.25;;;;;;;;;;5023592;28;20045;-69
2023/05/03 07:49:13;;;;;;;68.32;5.97;;;;;;;;;;4984923;28;20049;-69
2023/05/03 07:51:47;;;;;;;63.28;5.32;;;;;;;;;;5007675;28;20438;-71
2023/05/03 07:54:19;;;;;;;39.38;4.18;;;;;;;;;;5007035;28;20038;-71
2023/05/03 07:56:45;;;;;;;99.63;7.75;;;;;;;;;;5011748;28;20042;-70
2023/05/03 07:59:12;;;;;;;90.60;7.18;;;;;;;;;;5018728;28;20507;-69
2023/05/03 08:01:39;;;;;;;154.90;11.98;;;;;;;;;;5006159;28;20106;-70
2023/05/03 08:04:06;;;;;;;108.35;8.60;;;;;;;;;;5021679;28;20053;-72
2023/05/03 08:06:37;;;;;;;78.88;7.45;;;;;;;;;;5006417;28;20450;-70
2023/05/03 08:09:03;;;;;;;84.95;7.65;;;;;;;;;;5021791;28;20046;-69
2023/05/03 08:11:30;;;;;;;101.15;9.50;;;;;;;;;;5017657;28;20038;-67
2023/05/03 08:13:57;;;;;;;89.57;7.70;;;;;;;;;;5021841;28;20072;-70
2023/05/03 08:16:23;;;;;;;73.40;6.38;;;;;;;;;;5023641;28;20057;-68
2023/05/03 08:18:50;;;;;;;144.18;12.15;;;;;;;;;;5018770;28;20096;-71
2023/05/03 08:21:17;;;;;;;70.88;6.28;;;;;;;;;;5012086;28;20107;-71
2023/05/03 08:23:43;;;;;;;61.60;5.60;;;;;;;;;;5020674;28;20403;-69
2023/05/03 08:26:12;;;;;;;92.18;9.10;;;;;;;;;;5021834;28;20037;-70
2023/05/03 08:28:40;;;;;;;95.43;8.30;;;;;;;;;;5009966;28;20073;-71
2023/05/03 08:31:06;;;;;;;117.28;9.35;;;;;;;;;;5019863;28;20052;-70
2023/05/03 08:33:33;;;;;;;123.88;10.30;;;;;;;;;;5018177;28;20133;-70
2023/05/03 08:36:00;;;;;;;92.70;7.85;;;;;;;;;;5018148;28;20528;-68
2023/05/03 08:38:27;;;;;;;86.80;7.47;;;;;;;;;;5008933;28;20068;-70
2023/05/03 08:40:56;;;;;;;145.88;11.13;;;;;;;;;;5021562;28;20038;-69
2023/05/03 08:43:26;;;;;;;64.57;5.70;;;;;;;;;;5020208;28;20073;-70
2023/05/03 08:45:52;;;;;;;114.07;9.18;;;;;;;;;;5019745;28;20049;-69
2023/05/03 08:48:19;;;;;;;90.45;7.65;;;;;;;;;;5021022;28;20052;-70
2023/05/03 08:50:47;;;;;;;78.18;7.28;;;;;;;;;;4999254;28;20048;-70
2023/05/03 08:53:14;;;;;;;38.00;3.97;;;;;;;;;;5018104;28;20038;-73
2023/05/03 08:55:41;;;;;;;94.43;8.02;;;;;;;;;;5020861;28;20045;-69
2023/05/03 08:58:11;;;;;;;98.95;8.38;;;;;;;;;;5003079;28;20052;-70
2023/05/03 09:00:40;;;;;;;60.67;4.85;;;;;;;;;;5019912;28;20488;-69
2023/05/03 09:03:07;;;;;;;101.80;8.43;;;;;;;;;;5003701;28;20061;-68
2023/05/03 09:05:34;;;;;;;109.22;8.90;;;;;;;;;;5018474;28;20133;-70
2023/05/03 09:08:08;;;;;;;59.45;5.18;;;;;;;;;;5019714;28;20049;-69
2023/05/03 09:10:41;;;;;;;103.35;8.55;;;;;;;;;;5008793;28;20107;-68
2023/05/03 09:13:08;;;;;;;63.88;5.85;;;;;;;;;;5019875;28;20045;-69
2023/05/03 09:15:35;;;;;;;104.10;8.45;;;;;;;;;;5017551;28;20060;-70
2023/05/03 09:18:18;;;;;;;70.60;6.22;;;;;;;;;;5023498;28;20046;-67
2023/05/03 09:20:52;;;;;;;80.63;7.63;;;;;;;;;;5020400;28;20120;-69
2023/05/03 09:23:24;;;;;;;50.42;4.63;;;;;;;;;;4999843;28;20072;-70
2023/05/03 09:25:51;;;;;;;74.65;6.78;;;;;;;;;;5000185;28;20045;-69
2023/05/03 09:28:18;;;;;;;93.30;7.70;;;;;;;;;;5019797;28;20498;-67
2023/05/03 09:30:46;;;;;;;88.78;7.45;;;;;;;;;;5002521;28;20057;-70
2023/05/03 09:33:19;;;;;;;54.97;5.43;;;;;;;;;;5015674;28;20590;-69
2023/05/03 09:35:59;;;;;;;108.07;8.18;;;;;;;;;;4995826;28;20096;-70
2023/05/03 09:38:32;;;;;;;75.78;6.40;;;;;;;;;;5020940;28;20507;-67
2023/05/03 09:41:00;;;;;;;122.10;9.65;;;;;;;;;;5020894;28;20045;-70
2023/05/03 09:43:26;;;;;;;94.38;7.85;;;;;;;;;;5018611;28;20046;-68
2023/05/03 09:46:06;;;;;;;77.82;6.45;;;;;;;;;;5018423;28;20073;-69
2023/05/03 09:48:32;;;;;;;82.97;6.88;;;;;;;;;;5021734;28;20038;-68
2023/05/03 09:50:59;;;;;;;64.90;5.65;;;;;;;;;;5019005;28;20104;-68
2023/05/03 09:53:26;;;;;;;100.63;7.53;;;;;;;;;;5008832;28;20077;-68
2023/05/03 09:55:54;;;;;;;121.22;9.88;;;;;;;;;;5020956;28;20052;-69
2023/05/03 09:58:22;;;;;;;53.90;4.90;;;;;;;;;;5019398;28;20041;-70
2023/05/03 10:00:50;;;;;;;93.55;7.57;;;;;;;;;;5018718;28;20069;-70
2023/05/03 10:03:23;;;;;;;74.95;7.30;;;;;;;;;;5018349;28;20049;-70
2023/05/03 10:05:50;;;;;;;81.03;6.70;;;;;;;;;;5009877;28;20129;-70
2023/05/03 10:08:33;;;;;;;98.03;7.97;;;;;;;;;;4998681;28;20038;-69
2023/05/03 10:11:10;;;;;;;86.43;7.22;;;;;;;;;;5018052;28;20045;-68
2023/05/03 10:13:36;;;;;;;101.70;8.07;;;;;;;;;;5022560;28;20498;-69
2023/05/03 10:16:08;;;;;;;99.82;8.20;;;;;;;;;;5019399;28;20072;-67
2023/05/03 10:18:39;;;;;;;86.88;7.15;;;;;;;;;;5018918;28;20050;-70
2023/05/03 10:21:08;;;;;;;118.97;9.77;;;;;;;;;;5019688;28;20046;-68
2023/05/03 10:23:34;;;;;;;70.47;6.03;;;;;;;;;;5016441;28;20050;-70
2023/05/03 10:26:04;;;;;;;78.53;6.72;;;;;;;;;;5019017;28;20038;-70
2023/05/03 10:28:34;;;;;;;73.88;6.03;;;;;;;;;;5008422;28;20411;-69
2023/05/03 10:31:01;;;;;;;135.07;13.88;;;;;;;;;;5018066;28;20094;-70
2023/05/03 10:33:33;;;;;;;126.97;10.20;;;;;;;;;;5017983;28;20042;-67
2023/05/03 10:36:04;;;;;;;89.35;7.72;;;;;;;;;;5009483;28;20479;-69
2023/05/03 10:38:31;;;;;;;63.90;5.53;;;;;;;;;;5017530;28;20034;-67
2023/05/03 10:40:59;;;;;;;113.68;9.48;;;;;;;;;;5018837;28;20072;-67
2023/05/03 10:43:31;;;;;;;73.20;6.53;;;;;;;;;;5019344;28;20046;-68
2023/05/03 10:45:58;;;;;;;141.85;10.93;;;;;;;;;;5016612;28;20522;-69
2023/05/03 10:48:25;;;;;;;66.55;7.40;;;;;;;;;;5019880;28;20571;-67
2023/05/03 10:50:52;;;;;;;82.70;6.40;;;;;;;;;;5023221;28;20042;-69
2023/05/03 10:53:40;;;;;;;90.70;7.75;;;;;;;;;;5003941;28;20073;-70
2023/05/03 10:56:11;;;;;;;75.15;6.68;;;;;;;;;;5023428;28;20560;-69
2023/05/03 10:58:43;;;;;;;107.40;9.13;;;;;;;;;;4987562;28;20111;-69
2023/05/03 11:01:10;;;;;;;109.72;9.57;;;;;;;;;;5022279;28;20075;-69
2023/05/03 11:03:40;;;;;;;47.53;5.15;;;;;;;;;;4997466;28;20144;-70
2023/05/03 11:06:06;;;;;;;89.97;8.05;;;;;;;;;;5025048;28;20053;-70
2023/05/03 11:08:36;;;;;;;86.25;8.32;;;;;;;;;;5022655;28;20164;-70
2023/05/03 11:11:08;;;;;;;104.57;8.75;;;;;;;;;;5021238;28;20392;-67
2023/05/03 11:13:35;;;;;;;89.57;8.13;;;;;;;;;;5020820;28;20029;-71
2023/05/03 11:16:04;;;;;;;108.22;10.10;;;;;;;;;;5029949;28;20049;-69
2023/05/03 11:18:32;;;;;;;85.05;7.15;;;;;;;;;;5027540;28;20045;-69
2023/05/03 11:20:58;;;;;;;111.05;9.45;;;;;;;;;;5028454;28;20117;-70
2023/05/03 11:23:27;;;;;;;107.53;9.52;;;;;;;;;;5018958;28;20046;-69
2023/05/03 11:25:54;;;;;;;76.60;7.60;;;;;;;;;;5020865;28;20038;-70
2023/05/03 11:28:20;;;;;;;77.47;7.53;;;;;;;;;;5016993;28;20133;-71
2023/05/03 11:30:47;;;;;;;58.30;6.30;;;;;;;;;;5004508;28;20187;-69
2023/05/03 11:33:14;;;;;;;111.60;9.80;;;;;;;;;;5025942;28;20060;-66
2023/05/03 11:35:41;;;;;;;79.28;6.88;;;;;;;;;;5012565;28;20033;-70
2023/05/03 11:38:08;;;;;;;72.20;6.25;;;;;;;;;;5023531;28;20048;-68
2023/05/03 11:40:38;;;;;;;77.05;7.45;;;;;;;;;;5011674;28;20117;-68
2023/05/03 11:43:08;;;;;;;136.00;11.82;;;;;;;;;;5024621;28;20585;-68
2023/05/03 11:45:45;;;;;;;109.05;9.23;;;;;;;;;;5008584;28;20096;-68
2023/05/03 11:48:12;;;;;;;104.05;8.32;;;;;;;;;;4998512;28;20507;-69
2023/05/03 11:50:54;;;;;;;67.00;6.07;;;;;;;;;;5022355;28;20082;-69
2023/05/03 11:53:22;;;;;;;75.93;6.80;;;;;;;;;;5025570;28;20034;-69
2023/05/03 11:55:53;;;;;;;77.85;6.43;;;;;;;;;;5019625;28;20531;-72
2023/05/03 11:58:23;;;;;;;55.58;5.43;;;;;;;;;;5026401;28;20138;-70
2023/05/03 12:00:51;;;;;;;111.57;9.95;;;;;;;;;;5026854;28;20072;-70
2023/05/03 12:03:28;;;;;;;84.28;7.07;;;;;;;;;;5018684;28;20468;-71
2023/05/03 12:05:58;;;;;;;128.80;10.05;;;;;;;;;;5017387;28;20049;-70
2023/05/03 12:08:28;;;;;;;116.40;10.77;;;;;;;;;;5021214;28;20410;-70
2023/05/03 12:10:56;;;;;;;87.53;7.60;;;;;;;;;;5019249;28;20047;-70
2023/05/03 12:13:31;;;;;;;183.90;15.10;;;;;;;;;;4996926;28;20039;-66
2023/05/03 12:16:01;;;;;;;109.47;9.98;;;;;;;;;;5017102;28;20053;-70
2023/05/03 12:18:48;;;;;;;112.50;9.32;;;;;;;;;;5002981;28;20392;-63
2023/05/03 12:21:16;;;;;;;71.20;6.43;;;;;;;;;;5017622;28;20045;-61
2023/05/03 12:23:46;;;;;;;99.00;8.82;;;;;;;;;;5019754;28;20045;-62
2023/05/03 12:26:16;;;;;;;99.60;8.25;;;;;;;;;;5020619;28;20069;-62
2023/05/03 12:28:45;;;;;;;104.57;8.27;;;;;;;;;;4999407;28;20042;-63
2023/05/03 12:31:13;;;;;;;108.13;8.98;;;;;;;;;;5012299;28;20048;-62
2023/05/03 12:33:43;;;;;;;77.28;6.55;;;;;;;;;;5007780;28;20120;-69
2023/05/03 12:36:32;;;;;;;97.82;8.98;;;;;;;;;;5011984;28;20061;-65
2023/05/03 12:39:03;;;;;;;102.70;9.38;;;;;;;;;;5003590;28;20124;-66
2023/05/03 12:41:32;;;;;;;59.60;6.25;;;;;;;;;;5009218;28;20073;-66
2023/05/03 12:44:23;;;;;;;51.60;5.03;;;;;;;;;;4993623;28;20037;-66
2023/05/03 12:46:54;;;;;;;117.88;9.77;;;;;;;;;;5021072;28;20557;-68
2023/05/03 12:49:21;;;;;;;112.22;9.50;;;;;;;;;;5020279;28;20041;-65
2023/05/03 12:51:49;;;;;;;55.97;5.00;;;;;;;;;;5010918;28;20091;-67
2023/05/03 12:54:35;;;;;;;78.30;6.88;;;;;;;;;;5019884;28;20046;-67
2023/05/03 12:57:08;;;;;;;178.00;11.95;;;;;;;;;;5020835;28;20088;-66
2023/05/03 12:59:41;;;;;;;212.60;13.23;;;;;;;;;;4997926;28;20049;-65
2023/05/03 13:02:10;;;;;;;96.25;8.02;;;;;;;;;;5018873;28;20670;-67
2023/05/03 13:04:40;;;;;;;81.05;7.88;;;;;;;;;;5020469;28;20136;-65
2023/05/03 13:07:26;;;;;;;85.28;7.55;;;;;;;;;;5003674;28;20045;-65
2023/05/03 13:09:56;;;;;;;126.00;9.50;;;;;;;;;;5018870;28;20567;-64
2023/05/03 13:12:26;;;;;;;69.47;6.38;;;;;;;;;;5001590;28;20711;-68
2023/05/03 13:14:53;;;;;;;72.63;6.30;;;;;;;;;;5000090;28;20715;-65
2023/05/03 13:17:21;;;;;;;86.53;8.00;;;;;;;;;;4999433;28;20443;-67
2023/05/03 13:19:49;;;;;;;113.47;9.85;;;;;;;;;;5007647;28;20570;-66
2023/05/03 13:22:16;;;;;;;131.50;11.13;;;;;;;;;;5009280;28;20041;-64
2023/05/03 13:24:43;;;;;;;73.00;12.43;;;;;;;;;;5011045;28;20100;-63
2023/05/03 13:27:10;;;;;;;126.57;21.40;;;;;;;;;;5021703;28;20050;-64
2023/05/03 13:29:37;;;;;;;100.85;24.30;;;;;;;;;;5017363;28;20038;-62
2023/05/03 13:32:06;;;;;;;106.97;13.35;;;;;;;;;;5008455;28;20096;-63
2023/05/03 13:34:33;;;;;;;97.50;17.27;;;;;;;;;;5020134;28;20046;-64
2023/05/03 13:37:01;;;;;;;101.28;24.70;;;;;;;;;;5018194;28;20798;-64
2023/05/03 13:39:28;;;;;;;139.38;19.45;;;;;;;;;;5006787;28;20049;-63
2023/05/03 13:41:55;;;;;;;87.82;13.98;;;;;;;;;;5020165;28;20038;-64
2023/05/03 13:44:24;;;;;;;72.80;12.60;;;;;;;;;;5020968;28;20038;-64
2023/05/03 13:46:51;;;;;;;73.47;15.73;;;;;;;;;;5000850;28;20041;-66
2023/05/03 13:49:17;;;;;;;101.63;13.38;;;;;;;;;;5018194;28;20514;-66
2023/05/03 13:51:44;;;;;;;69.03;12.48;;;;;;;;;;5019498;28;20056;-65
2023/05/03 13:54:11;;;;;;;102.05;15.90;;;;;;;;;;5019336;28;20479;-67
2023/05/03 13:56:40;;;;;;;90.00;13.27;;;;;;;;;;5017466;28;20161;-66
2023/05/03 13:59:08;;;;;;;105.50;14.10;;;;;;;;;;5008615;28;20124;-66
2023/05/03 14:01:36;;;;;;;183.50;20.00;;;;;;;;;;5017675;28;20045;-66
2023/05/03 14:04:03;;;;;;;94.90;11.70;;;;;;;;;;5019198;28;20517;-66
2023/05/03 14:06:30;;;;;;;65.63;10.98;;;;;;;;;;5019736;28;20121;-66
2023/05/03 14:09:00;;;;;;;126.78;16.10;;;;;;;;;;5001266;28;20072;-66
2023/05/03 14:11:28;;;;;;;75.15;11.65;;;;;;;;;;5017131;28;20042;-67
2023/05/03 14:13:59;;;;;;;187.48;20.13;;;;;;;;;;4999707;28;20092;-64
2023/05/03 14:16:26;;;;;;;143.77;16.70;;;;;;;;;;5001641;28;20068;-63
2023/05/03 14:18:55;;;;;;;112.88;13.80;;;;;;;;;;5007553;28;20048;-66
2023/05/03 14:21:22;;;;;;;123.88;15.30;;;;;;;;;;5021775;28;20681;-67
2023/05/03 14:23:49;;;;;;;253.13;18.55;;;;;;;;;;5018214;28;20061;-64
2023/05/03 14:26:16;;;;;;;110.22;19.10;;;;;;;;;;5000625;28;20570;-64
2023/05/03 14:28:43;;;;;;;46.53;8.10;;;;;;;;;;5008431;28;20042;-65